sensor_id;sensor_type;location;lat;lon;timestamp;P1;durP1;ratioP1;P2;durP2;ratioP2
51800;SDS011;37855;53.204;6.568;2023-03-01T00:01:12;20.30;;;12.07;;
51800;SDS011;37855;53.204;6.568;2023-03-01T00:03:39;22.10;;;11.07;;
51800;SDS011;37855;53.204;6.568;2023-03-01T00:06:06;22.33;;;11.35;;
51800;SDS011;37855;53.204;6.568;2023-03-01T00:08:32;20.10;;;11.37;;
51800;SDS011;37855;53.204;6.568;2023-03-01T00:13:30;22.00;;;12.00;;
51800;SDS011;37855;53.204;6.568;2023-03-01T00:15:56;20.33;;;12.25;;
51800;SDS011;37855;53.204;6.568;2023-03-01T00:18:22;20.20;;;11.73;;
51800;SDS011;37855;53.204;6.568;2023-03-01T00:20:51;21.23;;;11.95;;
51800;SDS011;37855;53.204;6.568;2023-03-01T00:23:18;20.30;;;12.30;;
51800;SDS011;37855;53.204;6.568;2023-03-01T00:25:44;22.17;;;12.38;;
51800;SDS011;37855;53.204;6.568;2023-03-01T00:28:10;22.10;;;11.87;;
51800;SDS011;37855;53.204;6.568;2023-03-01T00:30:36;19.65;;;11.38;;
51800;SDS011;37855;53.204;6.568;2023-03-01T00:33:02;22.20;;;12.43;;
51800;SDS011;37855;53.204;6.568;2023-03-01T00:35:27;20.77;;;11.30;;
51800;SDS011;37855;53.204;6.568;2023-03-01T00:37:59;23.75;;;13.00;;
51800;SDS011;37855;53.204;6.568;2023-03-01T00:40:25;23.75;;;13.20;;
51800;SDS011;37855;53.204;6.568;2023-03-01T00:42:56;26.65;;;14.18;;
51800;SDS011;37855;53.204;6.568;2023-03-01T00:45:23;23.33;;;12.77;;
51800;SDS011;37855;53.204;6.568;2023-03-01T00:47:50;21.48;;;12.73;;
51800;SDS011;37855;53.204;6.568;2023-03-01T00:50:16;22.58;;;12.75;;
51800;SDS011;37855;53.204;6.568;2023-03-01T00:52:43;22.70;;;12.45;;
51800;SDS011;37855;53.204;6.568;2023-03-01T00:55:13;22.42;;;12.57;;
51800;SDS011;37855;53.204;6.568;2023-03-01T00:57:38;23.70;;;12.67;;
51800;SDS011;37855;53.204;6.568;2023-03-01T01:00:05;20.73;;;11.80;;
51800;SDS011;37855;53.204;6.568;2023-03-01T01:02:32;24.57;;;13.13;;
51800;SDS011;37855;53.204;6.568;2023-03-01T01:04:59;22.45;;;13.18;;
51800;SDS011;37855;53.204;6.568;2023-03-01T01:07:25;26.02;;;14.10;;
51800;SDS011;37855;53.204;6.568;2023-03-01T01:09:51;22.90;;;13.80;;
51800;SDS011;37855;53.204;6.568;2023-03-01T01:12:16;22.53;;;12.70;;
51800;SDS011;37855;53.204;6.568;2023-03-01T01:14:42;23.23;;;13.43;;
51800;SDS011;37855;53.204;6.568;2023-03-01T01:17:20;23.88;;;12.73;;
51800;SDS011;37855;53.204;6.568;2023-03-01T01:19:46;23.83;;;12.97;;
51800;SDS011;37855;53.204;6.568;2023-03-01T01:22:40;23.33;;;13.20;;
51800;SDS011;37855;53.204;6.568;2023-03-01T01:25:12;24.58;;;13.55;;
51800;SDS011;37855;53.204;6.568;2023-03-01T01:27:39;25.17;;;14.00;;
51800;SDS011;37855;53.204;6.568;2023-03-01T01:30:04;25.87;;;13.87;;
51800;SDS011;37855;53.204;6.568;2023-03-01T01:32:31;24.73;;;13.60;;
51800;SDS011;37855;53.204;6.568;2023-03-01T01:34:56;28.03;;;14.03;;
51800;SDS011;37855;53.204;6.568;2023-03-01T01:37:22;26.27;;;14.57;;
51800;SDS011;37855;53.204;6.568;2023-03-01T01:39:47;27.07;;;15.63;;
51800;SDS011;37855;53.204;6.568;2023-03-01T01:42:15;27.85;;;15.45;;
51800;SDS011;37855;53.204;6.568;2023-03-01T01:44:42;24.83;;;14.60;;
51800;SDS011;37855;53.204;6.568;2023-03-01T01:49:57;25.63;;;14.45;;
51800;SDS011;37855;53.204;6.568;2023-03-01T01:55:16;25.67;;;14.40;;
51800;SDS011;37855;53.204;6.568;2023-03-01T01:57:49;28.00;;;15.63;;
51800;SDS011;37855;53.204;6.568;2023-03-01T02:00:22;26.92;;;14.45;;
51800;SDS011;37855;53.204;6.568;2023-03-01T02:02:56;26.05;;;13.88;;
51800;SDS011;37855;53.204;6.568;2023-03-01T02:08:11;26.95;;;14.43;;
51800;SDS011;37855;53.204;6.568;2023-03-01T02:10:38;23.83;;;12.93;;
51800;SDS011;37855;53.204;6.568;2023-03-01T02:13:05;24.75;;;14.30;;
51800;SDS011;37855;53.204;6.568;2023-03-01T02:15:33;24.45;;;14.00;;
51800;SDS011;37855;53.204;6.568;2023-03-01T02:18:00;24.65;;;13.55;;
51800;SDS011;37855;53.204;6.568;2023-03-01T02:23:15;25.73;;;13.87;;
51800;SDS011;37855;53.204;6.568;2023-03-01T02:25:44;26.63;;;14.60;;
51800;SDS011;37855;53.204;6.568;2023-03-01T02:28:22;26.58;;;13.85;;
51800;SDS011;37855;53.204;6.568;2023-03-01T02:30:50;25.05;;;13.00;;
51800;SDS011;37855;53.204;6.568;2023-03-01T02:33:35;22.92;;;13.20;;
51800;SDS011;37855;53.204;6.568;2023-03-01T02:36:14;23.90;;;13.60;;
51800;SDS011;37855;53.204;6.568;2023-03-01T02:38:44;23.73;;;13.30;;
51800;SDS011;37855;53.204;6.568;2023-03-01T02:41:11;24.50;;;13.38;;
51800;SDS011;37855;53.204;6.568;2023-03-01T02:43:41;23.10;;;13.40;;
51800;SDS011;37855;53.204;6.568;2023-03-01T02:46:08;23.67;;;13.32;;
51800;SDS011;37855;53.204;6.568;2023-03-01T02:48:41;21.50;;;12.87;;
51800;SDS011;37855;53.204;6.568;2023-03-01T02:51:17;25.20;;;13.20;;
51800;SDS011;37855;53.204;6.568;2023-03-01T02:56:21;22.15;;;12.50;;
51800;SDS011;37855;53.204;6.568;2023-03-01T02:58:47;23.30;;;13.87;;
51800;SDS011;37855;53.204;6.568;2023-03-01T03:01:17;24.77;;;13.65;;
51800;SDS011;37855;53.204;6.568;2023-03-01T03:03:43;22.67;;;14.10;;
51800;SDS011;37855;53.204;6.568;2023-03-01T03:06:09;24.97;;;13.33;;
51800;SDS011;37855;53.204;6.568;2023-03-01T03:08:35;23.58;;;13.10;;
51800;SDS011;37855;53.204;6.568;2023-03-01T03:11:01;23.73;;;13.77;;
51800;SDS011;37855;53.204;6.568;2023-03-01T03:13:27;23.05;;;14.15;;
51800;SDS011;37855;53.204;6.568;2023-03-01T03:15:56;21.97;;;13.10;;
51800;SDS011;37855;53.204;6.568;2023-03-01T03:18:22;24.77;;;14.30;;
51800;SDS011;37855;53.204;6.568;2023-03-01T03:20:51;24.65;;;14.15;;
51800;SDS011;37855;53.204;6.568;2023-03-01T03:23:22;22.45;;;13.88;;
51800;SDS011;37855;53.204;6.568;2023-03-01T03:25:49;23.37;;;13.40;;
51800;SDS011;37855;53.204;6.568;2023-03-01T03:28:31;21.55;;;13.02;;
51800;SDS011;37855;53.204;6.568;2023-03-01T03:30:58;26.35;;;14.38;;
51800;SDS011;37855;53.204;6.568;2023-03-01T03:33:29;24.73;;;13.57;;
51800;SDS011;37855;53.204;6.568;2023-03-01T03:36:05;24.40;;;13.27;;
51800;SDS011;37855;53.204;6.568;2023-03-01T03:38:31;23.17;;;13.63;;
51800;SDS011;37855;53.204;6.568;2023-03-01T03:41:02;25.17;;;13.90;;
51800;SDS011;37855;53.204;6.568;2023-03-01T03:43:30;24.67;;;13.75;;
51800;SDS011;37855;53.204;6.568;2023-03-01T03:45:57;24.80;;;14.63;;
51800;SDS011;37855;53.204;6.568;2023-03-01T03:48:24;25.92;;;13.95;;
51800;SDS011;37855;53.204;6.568;2023-03-01T03:50:54;26.23;;;13.90;;
51800;SDS011;37855;53.204;6.568;2023-03-01T03:53:22;24.83;;;14.50;;
51800;SDS011;37855;53.204;6.568;2023-03-01T03:55:52;24.30;;;13.38;;
51800;SDS011;37855;53.204;6.568;2023-03-01T03:58:19;23.27;;;13.30;;
51800;SDS011;37855;53.204;6.568;2023-03-01T04:00:47;26.95;;;14.75;;
51800;SDS011;37855;53.204;6.568;2023-03-01T04:03:15;23.70;;;13.80;;
51800;SDS011;37855;53.204;6.568;2023-03-01T04:05:43;25.75;;;13.45;;
51800;SDS011;37855;53.204;6.568;2023-03-01T04:08:09;22.95;;;14.18;;
51800;SDS011;37855;53.204;6.568;2023-03-01T04:10:37;22.20;;;13.80;;
51800;SDS011;37855;53.204;6.568;2023-03-01T04:13:08;25.00;;;14.63;;
51800;SDS011;37855;53.204;6.568;2023-03-01T04:15:36;23.40;;;13.23;;
51800;SDS011;37855;53.204;6.568;2023-03-01T04:18:02;22.95;;;13.25;;
51800;SDS011;37855;53.204;6.568;2023-03-01T04:20:29;23.83;;;14.57;;
51800;SDS011;37855;53.204;6.568;2023-03-01T04:23:06;23.20;;;13.43;;
51800;SDS011;37855;53.204;6.568;2023-03-01T04:25:55;22.45;;;13.90;;
51800;SDS011;37855;53.204;6.568;2023-03-01T04:28:29;26.00;;;14.33;;
51800;SDS011;37855;53.204;6.568;2023-03-01T04:30:58;21.60;;;12.95;;
51800;SDS011;37855;53.204;6.568;2023-03-01T04:33:29;18.67;;;11.55;;
51800;SDS011;37855;53.204;6.568;2023-03-01T04:36:00;17.17;;;10.05;;
51800;SDS011;37855;53.204;6.568;2023-03-01T04:38:30;16.58;;;10.55;;
51800;SDS011;37855;53.204;6.568;2023-03-01T04:40:55;19.07;;;10.37;;
51800;SDS011;37855;53.204;6.568;2023-03-01T04:43:22;14.20;;;9.38;;
51800;SDS011;37855;53.204;6.568;2023-03-01T04:45:48;15.40;;;9.57;;
51800;SDS011;37855;53.204;6.568;2023-03-01T04:48:14;14.80;;;8.98;;
51800;SDS011;37855;53.204;6.568;2023-03-01T04:50:40;13.75;;;9.13;;
51800;SDS011;37855;53.204;6.568;2023-03-01T04:53:07;13.77;;;8.23;;
51800;SDS011;37855;53.204;6.568;2023-03-01T04:55:33;16.73;;;9.20;;
51800;SDS011;37855;53.204;6.568;2023-03-01T04:58:00;14.05;;;8.63;;
51800;SDS011;37855;53.204;6.568;2023-03-01T05:00:26;13.37;;;8.73;;
51800;SDS011;37855;53.204;6.568;2023-03-01T05:02:55;16.92;;;8.55;;
51800;SDS011;37855;53.204;6.568;2023-03-01T05:05:24;12.10;;;8.32;;
51800;SDS011;37855;53.204;6.568;2023-03-01T05:08:00;13.53;;;8.03;;
51800;SDS011;37855;53.204;6.568;2023-03-01T05:10:29;12.60;;;8.30;;
51800;SDS011;37855;53.204;6.568;2023-03-01T05:12:56;13.45;;;8.63;;
51800;SDS011;37855;53.204;6.568;2023-03-01T05:15:25;14.52;;;7.70;;
51800;SDS011;37855;53.204;6.568;2023-03-01T05:20:45;12.73;;;8.17;;
51800;SDS011;37855;53.204;6.568;2023-03-01T05:23:15;13.30;;;8.10;;
51800;SDS011;37855;53.204;6.568;2023-03-01T05:25:41;12.43;;;8.23;;
51800;SDS011;37855;53.204;6.568;2023-03-01T05:28:09;12.47;;;7.90;;
51800;SDS011;37855;53.204;6.568;2023-03-01T05:30:36;10.75;;;7.28;;
51800;SDS011;37855;53.204;6.568;2023-03-01T05:33:04;13.02;;;7.95;;
51800;SDS011;37855;53.204;6.568;2023-03-01T05:35:35;12.23;;;8.52;;
51800;SDS011;37855;53.204;6.568;2023-03-01T05:38:01;16.38;;;8.38;;
51800;SDS011;37855;53.204;6.568;2023-03-01T05:40:27;16.70;;;7.80;;
51800;SDS011;37855;53.204;6.568;2023-03-01T05:42:56;16.98;;;7.78;;
51800;SDS011;37855;53.204;6.568;2023-03-01T05:45:23;12.65;;;7.72;;
51800;SDS011;37855;53.204;6.568;2023-03-01T05:47:50;12.48;;;8.15;;
51800;SDS011;37855;53.204;6.568;2023-03-01T05:50:17;12.40;;;7.63;;
51800;SDS011;37855;53.204;6.568;2023-03-01T05:52:50;15.52;;;7.72;;
51800;SDS011;37855;53.204;6.568;2023-03-01T05:55:17;13.63;;;8.35;;
51800;SDS011;37855;53.204;6.568;2023-03-01T05:57:44;14.93;;;7.90;;
51800;SDS011;37855;53.204;6.568;2023-03-01T06:00:11;13.18;;;7.30;;
51800;SDS011;37855;53.204;6.568;2023-03-01T06:02:39;12.03;;;7.27;;
51800;SDS011;37855;53.204;6.568;2023-03-01T06:05:05;13.52;;;7.53;;
51800;SDS011;37855;53.204;6.568;2023-03-01T06:07:32;20.30;;;8.38;;
51800;SDS011;37855;53.204;6.568;2023-03-01T06:09:58;15.18;;;7.88;;
51800;SDS011;37855;53.204;6.568;2023-03-01T06:12:24;15.73;;;7.60;;
51800;SDS011;37855;53.204;6.568;2023-03-01T06:14:50;17.90;;;7.82;;
51800;SDS011;37855;53.204;6.568;2023-03-01T06:17:15;14.93;;;8.60;;
51800;SDS011;37855;53.204;6.568;2023-03-01T06:19:41;13.50;;;8.32;;
51800;SDS011;37855;53.204;6.568;2023-03-01T06:22:07;15.03;;;8.57;;
51800;SDS011;37855;53.204;6.568;2023-03-01T06:24:33;16.90;;;9.77;;
51800;SDS011;37855;53.204;6.568;2023-03-01T06:26:59;22.92;;;10.23;;
51800;SDS011;37855;53.204;6.568;2023-03-01T06:29:25;17.27;;;9.67;;
51800;SDS011;37855;53.204;6.568;2023-03-01T06:31:51;14.35;;;9.45;;
51800;SDS011;37855;53.204;6.568;2023-03-01T06:34:17;14.35;;;9.70;;
51800;SDS011;37855;53.204;6.568;2023-03-01T06:36:42;18.93;;;9.63;;
51800;SDS011;37855;53.204;6.568;2023-03-01T06:39:11;16.85;;;10.13;;
51800;SDS011;37855;53.204;6.568;2023-03-01T06:41:37;18.07;;;9.87;;
51800;SDS011;37855;53.204;6.568;2023-03-01T06:44:02;20.23;;;10.13;;
51800;SDS011;37855;53.204;6.568;2023-03-01T06:46:32;19.33;;;10.43;;
51800;SDS011;37855;53.204;6.568;2023-03-01T06:51:34;22.63;;;10.90;;
51800;SDS011;37855;53.204;6.568;2023-03-01T06:54:02;21.30;;;10.75;;
51800;SDS011;37855;53.204;6.568;2023-03-01T06:56:28;22.10;;;10.27;;
51800;SDS011;37855;53.204;6.568;2023-03-01T07:05:45;19.80;;;11.00;;
51800;SDS011;37855;53.204;6.568;2023-03-01T07:08:13;22.85;;;11.82;;
51800;SDS011;37855;53.204;6.568;2023-03-01T07:10:39;24.13;;;11.93;;
51800;SDS011;37855;53.204;6.568;2023-03-01T07:13:05;25.60;;;13.15;;
51800;SDS011;37855;53.204;6.568;2023-03-01T07:15:43;25.37;;;12.53;;
51800;SDS011;37855;53.204;6.568;2023-03-01T07:18:18;20.75;;;12.10;;
51800;SDS011;37855;53.204;6.568;2023-03-01T07:20:49;23.48;;;12.90;;
51800;SDS011;37855;53.204;6.568;2023-03-01T07:23:24;28.00;;;13.07;;
51800;SDS011;37855;53.204;6.568;2023-03-01T07:25:53;26.17;;;13.23;;
51800;SDS011;37855;53.204;6.568;2023-03-01T07:35:59;24.27;;;13.32;;
51800;SDS011;37855;53.204;6.568;2023-03-01T07:38:27;28.95;;;13.80;;
51800;SDS011;37855;53.204;6.568;2023-03-01T07:40:54;26.70;;;14.68;;
51800;SDS011;37855;53.204;6.568;2023-03-01T07:45:59;24.35;;;13.50;;
51800;SDS011;37855;53.204;6.568;2023-03-01T07:48:27;27.02;;;14.93;;
51800;SDS011;37855;53.204;6.568;2023-03-01T07:51:00;27.77;;;15.60;;
51800;SDS011;37855;53.204;6.568;2023-03-01T07:53:26;26.02;;;15.48;;
51800;SDS011;37855;53.204;6.568;2023-03-01T07:56:12;32.90;;;15.43;;
51800;SDS011;37855;53.204;6.568;2023-03-01T07:58:43;31.20;;;16.67;;
51800;SDS011;37855;53.204;6.568;2023-03-01T08:01:11;27.58;;;14.63;;
51800;SDS011;37855;53.204;6.568;2023-03-01T08:03:39;29.30;;;15.32;;
51800;SDS011;37855;53.204;6.568;2023-03-01T08:06:05;31.30;;;16.77;;
51800;SDS011;37855;53.204;6.568;2023-03-01T08:08:33;26.70;;;15.37;;
51800;SDS011;37855;53.204;6.568;2023-03-01T08:11:02;27.42;;;16.58;;
51800;SDS011;37855;53.204;6.568;2023-03-01T08:13:30;35.22;;;17.35;;
51800;SDS011;37855;53.204;6.568;2023-03-01T08:16:02;36.15;;;21.80;;
51800;SDS011;37855;53.204;6.568;2023-03-01T08:18:29;37.40;;;23.17;;
51800;SDS011;37855;53.204;6.568;2023-03-01T08:20:55;33.57;;;21.10;;
51800;SDS011;37855;53.204;6.568;2023-03-01T08:23:21;37.13;;;22.33;;
51800;SDS011;37855;53.204;6.568;2023-03-01T08:25:46;39.73;;;22.20;;
51800;SDS011;37855;53.204;6.568;2023-03-01T08:28:12;41.58;;;22.88;;
51800;SDS011;37855;53.204;6.568;2023-03-01T08:30:38;38.97;;;21.07;;
51800;SDS011;37855;53.204;6.568;2023-03-01T08:33:06;39.47;;;23.55;;
51800;SDS011;37855;53.204;6.568;2023-03-01T08:35:32;39.23;;;23.33;;
51800;SDS011;37855;53.204;6.568;2023-03-01T08:37:58;41.92;;;22.55;;
51800;SDS011;37855;53.204;6.568;2023-03-01T08:40:23;37.80;;;21.27;;
51800;SDS011;37855;53.204;6.568;2023-03-01T08:42:52;39.70;;;20.97;;
51800;SDS011;37855;53.204;6.568;2023-03-01T08:45:20;37.50;;;19.98;;
51800;SDS011;37855;53.204;6.568;2023-03-01T08:47:51;36.65;;;20.20;;
51800;SDS011;37855;53.204;6.568;2023-03-01T08:50:36;39.17;;;19.23;;
51800;SDS011;37855;53.204;6.568;2023-03-01T08:53:02;36.27;;;20.30;;
51800;SDS011;37855;53.204;6.568;2023-03-01T08:55:27;36.30;;;20.60;;
51800;SDS011;37855;53.204;6.568;2023-03-01T08:57:55;36.73;;;20.63;;
51800;SDS011;37855;53.204;6.568;2023-03-01T09:00:23;38.50;;;19.95;;
51800;SDS011;37855;53.204;6.568;2023-03-01T09:02:51;39.30;;;21.02;;
51800;SDS011;37855;53.204;6.568;2023-03-01T09:05:17;36.25;;;19.27;;
51800;SDS011;37855;53.204;6.568;2023-03-01T09:07:44;40.13;;;20.27;;
51800;SDS011;37855;53.204;6.568;2023-03-01T09:10:12;39.03;;;19.52;;
51800;SDS011;37855;53.204;6.568;2023-03-01T09:12:38;36.60;;;19.85;;
51800;SDS011;37855;53.204;6.568;2023-03-01T09:15:04;34.10;;;19.23;;
51800;SDS011;37855;53.204;6.568;2023-03-01T09:17:30;36.65;;;18.90;;
51800;SDS011;37855;53.204;6.568;2023-03-01T09:19:56;35.67;;;18.98;;
51800;SDS011;37855;53.204;6.568;2023-03-01T09:22:22;32.27;;;17.50;;
51800;SDS011;37855;53.204;6.568;2023-03-01T09:24:53;31.67;;;17.40;;
51800;SDS011;37855;53.204;6.568;2023-03-01T09:27:21;30.25;;;16.52;;
51800;SDS011;37855;53.204;6.568;2023-03-01T09:30:02;30.70;;;16.23;;
51800;SDS011;37855;53.204;6.568;2023-03-01T09:33:45;28.07;;;16.47;;
51800;SDS011;37855;53.204;6.568;2023-03-01T09:36:13;27.88;;;16.45;;
51800;SDS011;37855;53.204;6.568;2023-03-01T09:42:21;28.02;;;15.57;;
51800;SDS011;37855;53.204;6.568;2023-03-01T09:47:53;28.73;;;15.75;;
51800;SDS011;37855;53.204;6.568;2023-03-01T09:50:20;28.88;;;15.43;;
51800;SDS011;37855;53.204;6.568;2023-03-01T09:52:47;26.42;;;14.45;;
51800;SDS011;37855;53.204;6.568;2023-03-01T09:55:37;22.52;;;15.23;;
51800;SDS011;37855;53.204;6.568;2023-03-01T10:01:48;29.58;;;14.07;;
51800;SDS011;37855;53.204;6.568;2023-03-01T10:06:52;27.73;;;13.30;;
51800;SDS011;37855;53.204;6.568;2023-03-01T10:09:25;22.63;;;13.52;;
51800;SDS011;37855;53.204;6.568;2023-03-01T10:11:57;20.53;;;12.80;;
51800;SDS011;37855;53.204;6.568;2023-03-01T10:14:39;24.85;;;12.80;;
51800;SDS011;37855;53.204;6.568;2023-03-01T10:23:30;24.42;;;12.40;;
51800;SDS011;37855;53.204;6.568;2023-03-01T10:32:54;20.05;;;11.80;;
51800;SDS011;37855;53.204;6.568;2023-03-01T10:46:39;23.08;;;13.02;;
51800;SDS011;37855;53.204;6.568;2023-03-01T10:49:27;23.85;;;14.00;;
51800;SDS011;37855;53.204;6.568;2023-03-01T10:51:57;23.33;;;14.05;;
51800;SDS011;37855;53.204;6.568;2023-03-01T10:54:50;25.17;;;14.40;;
51800;SDS011;37855;53.204;6.568;2023-03-01T10:57:37;21.75;;;13.07;;
51800;SDS011;37855;53.204;6.568;2023-03-01T11:00:24;25.15;;;14.00;;
51800;SDS011;37855;53.204;6.568;2023-03-01T11:03:10;24.35;;;13.05;;
51800;SDS011;37855;53.204;6.568;2023-03-01T11:05:49;26.73;;;15.05;;
51800;SDS011;37855;53.204;6.568;2023-03-01T11:08:30;28.37;;;14.27;;
51800;SDS011;37855;53.204;6.568;2023-03-01T11:13:54;25.13;;;15.38;;
51800;SDS011;37855;53.204;6.568;2023-03-01T11:19:00;22.13;;;14.50;;
51800;SDS011;37855;53.204;6.568;2023-03-01T11:21:30;25.60;;;14.30;;
51800;SDS011;37855;53.204;6.568;2023-03-01T11:27:43;19.73;;;12.90;;
51800;SDS011;37855;53.204;6.568;2023-03-01T12:01:52;20.55;;;13.25;;
51800;SDS011;37855;53.204;6.568;2023-03-01T12:10:29;23.73;;;11.90;;
51800;SDS011;37855;53.204;6.568;2023-03-01T12:18:55;18.65;;;10.60;;
51800;SDS011;37855;53.204;6.568;2023-03-01T12:40:33;21.95;;;11.90;;
51800;SDS011;37855;53.204;6.568;2023-03-01T12:48:52;17.58;;;11.15;;
51800;SDS011;37855;53.204;6.568;2023-03-01T12:51:28;18.83;;;10.70;;
51800;SDS011;37855;53.204;6.568;2023-03-01T12:53:57;19.95;;;10.70;;
51800;SDS011;37855;53.204;6.568;2023-03-01T12:56:27;20.10;;;10.73;;
51800;SDS011;37855;53.204;6.568;2023-03-01T13:07:09;15.45;;;9.82;;
51800;SDS011;37855;53.204;6.568;2023-03-01T13:09:58;15.65;;;10.30;;
51800;SDS011;37855;53.204;6.568;2023-03-01T13:18:03;16.63;;;9.93;;
51800;SDS011;37855;53.204;6.568;2023-03-01T13:28:56;15.88;;;9.85;;
51800;SDS011;37855;53.204;6.568;2023-03-01T13:33:57;14.48;;;8.93;;
51800;SDS011;37855;53.204;6.568;2023-03-01T13:39:29;17.58;;;10.60;;
51800;SDS011;37855;53.204;6.568;2023-03-01T13:42:03;17.92;;;10.60;;
51800;SDS011;37855;53.204;6.568;2023-03-01T13:44:31;17.90;;;10.10;;
51800;SDS011;37855;53.204;6.568;2023-03-01T13:49:41;18.08;;;9.77;;
51800;SDS011;37855;53.204;6.568;2023-03-01T13:52:58;19.55;;;11.13;;
51800;SDS011;37855;53.204;6.568;2023-03-01T13:55:27;15.57;;;10.50;;
51800;SDS011;37855;53.204;6.568;2023-03-01T13:58:00;14.70;;;9.32;;
51800;SDS011;37855;53.204;6.568;2023-03-01T14:00:33;13.95;;;8.98;;
51800;SDS011;37855;53.204;6.568;2023-03-01T14:05:34;14.93;;;9.38;;
51800;SDS011;37855;53.204;6.568;2023-03-01T14:08:01;15.73;;;9.60;;
51800;SDS011;37855;53.204;6.568;2023-03-01T14:10:46;14.57;;;8.55;;
51800;SDS011;37855;53.204;6.568;2023-03-01T14:13:22;15.88;;;9.00;;
51800;SDS011;37855;53.204;6.568;2023-03-01T14:18:52;15.82;;;9.60;;
51800;SDS011;37855;53.204;6.568;2023-03-01T14:21:38;16.50;;;9.80;;
51800;SDS011;37855;53.204;6.568;2023-03-01T14:24:14;14.80;;;9.65;;
51800;SDS011;37855;53.204;6.568;2023-03-01T14:26:45;17.27;;;10.30;;
51800;SDS011;37855;53.204;6.568;2023-03-01T14:32:20;15.50;;;9.63;;
51800;SDS011;37855;53.204;6.568;2023-03-01T14:35:51;17.60;;;10.38;;
51800;SDS011;37855;53.204;6.568;2023-03-01T14:38:13;18.20;;;10.60;;
51800;SDS011;37855;53.204;6.568;2023-03-01T14:41:06;20.83;;;10.43;;
51800;SDS011;37855;53.204;6.568;2023-03-01T14:44:07;17.17;;;10.23;;
51800;SDS011;37855;53.204;6.568;2023-03-01T14:47:15;19.88;;;10.68;;
51800;SDS011;37855;53.204;6.568;2023-03-01T14:49:57;17.10;;;10.93;;
51800;SDS011;37855;53.204;6.568;2023-03-01T15:09:02;17.15;;;10.48;;
51800;SDS011;37855;53.204;6.568;2023-03-01T15:11:32;16.83;;;10.60;;
51800;SDS011;37855;53.204;6.568;2023-03-01T15:17:26;16.85;;;10.73;;
51800;SDS011;37855;53.204;6.568;2023-03-01T15:19:55;17.88;;;10.57;;
51800;SDS011;37855;53.204;6.568;2023-03-01T15:22:21;18.60;;;11.03;;
51800;SDS011;37855;53.204;6.568;2023-03-01T15:24:50;18.07;;;10.93;;
51800;SDS011;37855;53.204;6.568;2023-03-01T15:27:17;16.58;;;10.07;;
51800;SDS011;37855;53.204;6.568;2023-03-01T15:29:49;16.38;;;11.00;;
51800;SDS011;37855;53.204;6.568;2023-03-01T15:35:00;16.93;;;10.10;;
51800;SDS011;37855;53.204;6.568;2023-03-01T15:37:47;17.52;;;10.75;;
51800;SDS011;37855;53.204;6.568;2023-03-01T15:40:18;16.98;;;10.40;;
51800;SDS011;37855;53.204;6.568;2023-03-01T15:42:46;16.42;;;10.63;;
51800;SDS011;37855;53.204;6.568;2023-03-01T15:47:46;17.93;;;10.10;;
51800;SDS011;37855;53.204;6.568;2023-03-01T15:52:51;17.65;;;10.80;;
51800;SDS011;37855;53.204;6.568;2023-03-01T15:55:18;17.60;;;11.00;;
51800;SDS011;37855;53.204;6.568;2023-03-01T15:57:47;18.58;;;11.05;;
51800;SDS011;37855;53.204;6.568;2023-03-01T16:00:14;18.43;;;10.57;;
51800;SDS011;37855;53.204;6.568;2023-03-01T16:02:43;18.00;;;11.55;;
51800;SDS011;37855;53.204;6.568;2023-03-01T16:05:21;17.13;;;11.05;;
51800;SDS011;37855;53.204;6.568;2023-03-01T16:07:48;16.67;;;11.07;;
51800;SDS011;37855;53.204;6.568;2023-03-01T16:10:14;20.70;;;11.40;;
51800;SDS011;37855;53.204;6.568;2023-03-01T16:12:40;20.97;;;12.07;;
51800;SDS011;37855;53.204;6.568;2023-03-01T16:15:12;17.13;;;10.73;;
51800;SDS011;37855;53.204;6.568;2023-03-01T16:17:44;19.92;;;12.23;;
51800;SDS011;37855;53.204;6.568;2023-03-01T16:20:14;18.83;;;12.30;;
51800;SDS011;37855;53.204;6.568;2023-03-01T16:22:44;18.25;;;11.85;;
51800;SDS011;37855;53.204;6.568;2023-03-01T16:27:46;20.15;;;12.25;;
51800;SDS011;37855;53.204;6.568;2023-03-01T16:30:25;21.05;;;13.63;;
51800;SDS011;37855;53.204;6.568;2023-03-01T16:32:54;22.58;;;12.52;;
51800;SDS011;37855;53.204;6.568;2023-03-01T16:36:17;26.05;;;13.00;;
51800;SDS011;37855;53.204;6.568;2023-03-01T16:41:35;24.02;;;13.88;;
51800;SDS011;37855;53.204;6.568;2023-03-01T16:44:00;20.30;;;12.07;;
51800;SDS011;37855;53.204;6.568;2023-03-01T16:46:27;19.03;;;10.67;;
51800;SDS011;37855;53.204;6.568;2023-03-01T16:48:54;16.77;;;9.77;;
51800;SDS011;37855;53.204;6.568;2023-03-01T16:51:20;16.00;;;9.93;;
51800;SDS011;37855;53.204;6.568;2023-03-01T16:53:49;18.92;;;11.65;;
51800;SDS011;37855;53.204;6.568;2023-03-01T16:56:16;18.30;;;11.48;;
51800;SDS011;37855;53.204;6.568;2023-03-01T16:58:43;15.33;;;9.17;;
51800;SDS011;37855;53.204;6.568;2023-03-01T17:01:16;17.50;;;11.40;;
51800;SDS011;37855;53.204;6.568;2023-03-01T17:03:44;19.13;;;11.38;;
51800;SDS011;37855;53.204;6.568;2023-03-01T17:06:15;19.05;;;8.75;;
51800;SDS011;37855;53.204;6.568;2023-03-01T17:08:43;21.70;;;11.37;;
51800;SDS011;37855;53.204;6.568;2023-03-01T17:13:43;15.20;;;8.80;;
51800;SDS011;37855;53.204;6.568;2023-03-01T17:16:10;16.48;;;10.27;;
51800;SDS011;37855;53.204;6.568;2023-03-01T17:18:37;19.73;;;11.67;;
51800;SDS011;37855;53.204;6.568;2023-03-01T17:21:26;20.98;;;11.20;;
51800;SDS011;37855;53.204;6.568;2023-03-01T17:28:00;15.98;;;10.30;;
51800;SDS011;37855;53.204;6.568;2023-03-01T17:30:41;16.13;;;10.83;;
51800;SDS011;37855;53.204;6.568;2023-03-01T17:57:14;18.52;;;11.68;;
51800;SDS011;37855;53.204;6.568;2023-03-01T17:59:44;14.20;;;9.40;;
51800;SDS011;37855;53.204;6.568;2023-03-01T18:02:31;14.57;;;9.85;;
51800;SDS011;37855;53.204;6.568;2023-03-01T18:08:31;19.35;;;11.10;;
51800;SDS011;37855;53.204;6.568;2023-03-01T18:11:09;22.52;;;13.48;;
51800;SDS011;37855;53.204;6.568;2023-03-01T18:20:21;20.60;;;12.18;;
51800;SDS011;37855;53.204;6.568;2023-03-01T18:22:47;19.97;;;12.30;;
51800;SDS011;37855;53.204;6.568;2023-03-01T18:25:15;21.73;;;13.27;;
51800;SDS011;37855;53.204;6.568;2023-03-01T18:27:42;17.58;;;11.73;;
51800;SDS011;37855;53.204;6.568;2023-03-01T18:30:08;15.38;;;10.32;;
51800;SDS011;37855;53.204;6.568;2023-03-01T18:32:37;19.85;;;12.38;;
51800;SDS011;37855;53.204;6.568;2023-03-01T18:35:22;21.13;;;12.73;;
51800;SDS011;37855;53.204;6.568;2023-03-01T18:41:32;19.27;;;11.65;;
51800;SDS011;37855;53.204;6.568;2023-03-01T18:44:28;17.33;;;9.48;;
51800;SDS011;37855;53.204;6.568;2023-03-01T18:46:59;17.73;;;11.80;;
51800;SDS011;37855;53.204;6.568;2023-03-01T18:49:27;20.75;;;12.27;;
51800;SDS011;37855;53.204;6.568;2023-03-01T18:51:53;20.52;;;13.50;;
51800;SDS011;37855;53.204;6.568;2023-03-01T18:54:26;16.80;;;9.87;;
51800;SDS011;37855;53.204;6.568;2023-03-01T18:56:53;15.93;;;9.90;;
51800;SDS011;37855;53.204;6.568;2023-03-01T18:59:55;14.73;;;10.43;;
51800;SDS011;37855;53.204;6.568;2023-03-01T19:02:30;18.00;;;10.98;;
51800;SDS011;37855;53.204;6.568;2023-03-01T19:05:12;17.20;;;11.35;;
51800;SDS011;37855;53.204;6.568;2023-03-01T19:07:44;19.27;;;10.73;;
51800;SDS011;37855;53.204;6.568;2023-03-01T19:10:13;17.45;;;10.55;;
51800;SDS011;37855;53.204;6.568;2023-03-01T19:15:29;15.55;;;9.57;;
51800;SDS011;37855;53.204;6.568;2023-03-01T19:18:09;17.00;;;12.07;;